Elwood, IN

5:26 PM EDT on September 03, 2015 (GMT -0400)
Pipe Creek Township Alexandria/Frankton | | Change Station
CLOSE
Current Station
Personal Weather Station
Location: Alexandria, IN
Elevation: 860 ft
Nearby Weather Stations

Elev 860 ft 40.25 °N, 85.75 °W | Updated 9 minutes ago

Partly Cloudy
Partly Cloudy
88.0 °F
Feels Like 94 °F
N
2.7
Wind Variable Wind from WSW

Today
High -- | Low -- °F
--% Chance of Precip.
Yesterday
High -- | Low -- °F
Precip. -- in
7:12 AM 8:12 PM
Waning Gibbous, 67% visible
Pressure 29.98 in
Visibility 10.0 miles
Clouds Scattered Clouds 5000 ft
Heat Index 94 °F
Dew Point 71 °F
Humidity 58%
Rainfall 0.00 in
Snow Depth Not available.
UV 5 out of 12
Pollen 10.60 out of 12
Air Quality Not available.
Flu Activity Not available.
METAR KAID 031951Z 25005KT 10SM SCT050 30/14 A2998
Pressure 29.98 in
Visibility 10.0 miles
Clouds Scattered Clouds 5000 ft
Heat Index 94 °F
Dew Point 71 °F
Humidity 58%
Rainfall 0.00 in
Snow Depth Not available.
UV 5 out of 12
Pollen 10.60 out of 12
Air Quality Not available.
Flu Activity Not available.
METAR KAID 031951Z 25005KT 10SM SCT050 30/14 A2998

10-Day Weather Forecast

×

Almanac

Astronomy

Sep. 03, 2015 Rise Set
Actual Time
Civil Twilight
Nautical Twilight
Astronomical Twilight
Moon
Length of Visible Light
Length of Day
Tomorrow will be .
, % of the Moon is Illuminated

Today's Extremes

State Highs State Lows

Community

WunderPhotos

Upload Photos

1,852,038 photos uploaded!

WunderBlogs® & News

Nearby

Air Quality

  Air Quality AQ Index Pollutant
Not available.

Snow Depth

Station Depth Elevation

Earthquake Activity

City Distance Mag. Time & Date
Minimum magnitude displayed is 2.5.

Coastal Water Temperatures

Place Temperature

Stations

Nearby Weather Stations

Station Location Temp. Windchill Dew Point Humidity Wind Precip. Elev Updated Type